Time;durP1;ratioP1;P1;durP2;ratioP2;P2;SDS_P1;SDS_P2;PMS_P1;PMS_P2;Temp;Humidity;BMP_temperature;BMP_pressure;BME280_temperature;BME280_humidity;BME280_pressure;Samples;Min_cycle;Max_cycle;Signal;HPM_P1;HPM_P2
2023/03/15 00:00:59;;;;;;;8.50;6.20;;;;;;;8.93;90.90;97634.48;273948;1270;22226;-82
2023/03/15 00:07:24;;;;;;;7.90;4.40;;;;;;;8.80;90.42;97653.02;274070;1276;22325;-83
2023/03/15 00:13:26;;;;;;;4.80;3.30;;;;;;;8.59;89.77;97697.73;274012;1273;22534;-84
2023/03/15 00:19:28;;;;;;;7.30;4.10;;;;;;;8.22;89.17;97737.48;269726;1257;22545;-83
2023/03/15 00:25:29;;;;;;;6.20;4.20;;;;;;;7.84;89.09;97766.23;270885;1268;22443;-83
2023/03/15 00:31:31;;;;;;;8.60;4.40;;;;;;;7.43;88.92;97791.38;270350;1269;22576;-83
2023/03/15 00:37:32;;;;;;;6.20;3.50;;;;;;;7.08;88.98;97816.09;270423;1269;25396;-83
2023/03/15 00:43:51;;;;;;;3.90;3.10;;;;;;;6.79;88.81;97834.08;271089;1259;22555;-84
2023/03/15 00:49:56;;;;;;;6.20;3.10;;;;;;;6.60;88.88;97853.98;270712;1269;23484;-83
2023/03/15 00:55:59;;;;;;;7.90;4.20;;;;;;;6.43;88.52;97886.69;272213;1270;22845;-83
2023/03/15 01:02:01;;;;;;;8.40;5.70;;;;;;;6.19;88.29;97916.88;271199;1256;22563;-82
2023/03/15 01:08:03;;;;;;;10.20;7.60;;;;;;;5.91;88.64;97934.77;270811;1269;23013;-85
2023/03/15 01:14:07;;;;;;;11.00;7.90;;;;;;;5.69;88.91;97955.41;270444;1269;24401;-82
2023/03/15 01:20:12;;;;;;;11.40;8.80;;;;;;;5.46;89.30;97975.48;270704;1269;23327;-82
2023/03/15 01:26:15;;;;;;;13.80;9.40;;;;;;;5.26;89.58;97995.50;269711;1268;23899;-83
2023/03/15 01:32:21;;;;;;;10.20;7.90;;;;;;;5.10;89.92;98007.55;273069;1269;22281;-83
2023/03/15 01:38:23;;;;;;;8.70;7.20;;;;;;;4.95;90.17;98025.52;273247;1257;22385;-84
2023/03/15 01:44:50;;;;;;;6.90;6.00;;;;;;;4.86;90.47;98040.30;272287;1256;22725;-83
2023/03/15 01:50:53;;;;;;;4.00;3.50;;;;;;;4.76;90.30;98052.36;272604;1270;22631;-83
2023/03/15 01:57:21;;;;;;;3.40;2.70;;;;;;;4.65;89.91;98069.89;270309;1259;22545;-83
2023/03/15 02:03:52;;;;;;;2.70;1.80;;;;;;;4.54;89.66;98082.23;271678;1269;22531;-83
2023/03/15 02:10:07;;;;;;;2.70;1.90;;;;;;;4.38;89.17;98084.13;273560;1261;22338;-83
2023/03/15 02:16:13;;;;;;;1.70;1.60;;;;;;;4.30;89.21;98095.27;273480;1259;22289;-82
2023/03/15 02:22:29;;;;;;;2.30;2.00;;;;;;;4.24;88.91;98114.72;273590;1264;22929;-83
2023/03/15 02:28:32;;;;;;;2.40;1.80;;;;;;;4.11;88.67;98129.91;271593;1269;25079;-82
2023/03/15 02:34:33;;;;;;;3.60;1.90;;;;;;;3.99;88.42;98136.52;270645;1269;22560;-82
2023/03/15 02:40:50;;;;;;;4.10;1.90;;;;;;;3.91;88.33;98138.50;270918;1269;22201;-81
2023/03/15 02:46:54;;;;;;;4.50;2.20;;;;;;;3.77;88.26;98140.40;274100;1269;22711;-82
2023/03/15 02:52:55;;;;;;;4.70;2.70;;;;;;;3.62;88.51;98153.44;273070;1269;22367;-82
2023/03/15 02:59:18;;;;;;;4.80;2.80;;;;;;;3.58;88.89;98168.31;273831;1273;22210;-83
2023/03/15 03:05:20;;;;;;;3.40;2.30;;;;;;;3.55;89.07;98177.51;274068;1269;22673;-83
2023/03/15 03:11:21;;;;;;;4.30;3.10;;;;;;;3.50;89.14;98190.45;272260;1259;23321;-82
2023/03/15 03:17:24;;;;;;;6.50;3.70;;;;;;;3.50;89.46;98197.24;270598;1269;22520;-83
2023/03/15 03:23:30;;;;;;;8.80;3.40;;;;;;;3.44;89.38;98203.53;271076;1269;22546;-83
2023/03/15 03:29:52;;;;;;;8.60;3.60;;;;;;;3.38;89.26;98209.00;272685;1269;22261;-83
2023/03/15 03:36:00;;;;;;;5.70;3.20;;;;;;;3.35;88.99;98217.82;270281;1259;23444;-83
2023/03/15 03:42:25;;;;;;;6.70;3.60;;;;;;;3.33;88.76;98214.49;270574;1259;22302;-82
2023/03/15 03:48:27;;;;;;;5.50;3.10;;;;;;;3.29;88.76;98225.15;271407;1261;22985;-83
2023/03/15 03:54:30;;;;;;;8.00;3.50;;;;;;;3.31;88.76;98235.40;274074;1269;22250;-82
2023/03/15 04:00:33;;;;;;;8.90;3.50;;;;;;;3.31;88.63;98230.46;272539;1269;22898;-82
2023/03/15 04:06:35;;;;;;;10.30;5.20;;;;;;;3.29;88.56;98235.42;272923;1269;22540;-83
2023/03/15 04:12:37;;;;;;;8.60;4.80;;;;;;;3.24;88.63;98248.20;271447;1269;22338;-84
2023/03/15 04:18:55;;;;;;;9.80;4.60;;;;;;;3.25;88.79;98254.72;270881;1269;23694;-83
2023/03/15 04:24:57;;;;;;;10.40;4.10;;;;;;;3.23;88.69;98254.52;272419;1259;22256;-83
2023/03/15 04:31:41;;;;;;;8.80;4.00;;;;;;;3.16;88.40;98263.36;273541;1266;22253;-83
2023/03/15 04:38:09;;;;;;;11.10;4.80;;;;;;;3.10;88.01;98270.83;273631;1269;22206;-83
2023/03/15 04:44:31;;;;;;;6.50;4.10;;;;;;;3.06;87.79;98274.96;271169;1269;3398925;-83
2023/03/15 04:50:48;;;;;;;;;;;;;;;3.05;87.52;98288.91;273768;1269;22468;-83
2023/03/15 04:57:57;;;;;;;15.70;4.40;;;;;;;3.01;87.17;98288.20;273899;1267;22374;-83
2023/03/15 05:04:19;;;;;;;7.60;3.20;;;;;;;2.98;86.68;98295.75;273958;1258;22177;-83
2023/03/15 05:10:43;;;;;;;16.10;4.30;;;;;;;2.96;86.43;98305.29;272238;1269;23426;-83
2023/03/15 05:17:02;;;;;;;9.80;3.60;;;;;;;2.97;86.26;98317.10;271255;1269;22547;-83
2023/03/15 05:23:26;;;;;;;10.10;4.10;;;;;;;2.97;86.18;98328.77;270656;1268;22571;-83
2023/03/15 05:29:52;;;;;;;15.00;3.40;;;;;;;2.95;86.05;98343.39;271384;1269;23262;-83
2023/03/15 05:36:27;;;;;;;12.10;3.90;;;;;;;2.96;86.00;98346.16;274075;1276;22972;-83
2023/03/15 05:42:47;;;;;;;;;;;;;;;3.03;86.05;98360.55;270974;1266;24179;-83
2023/03/15 05:48:55;;;;;;;11.50;3.10;;;;;;;3.06;85.69;98370.45;273919;1258;22469;-83
2023/03/15 05:55:44;;;;;;;9.80;3.20;;;;;;;3.09;85.67;98379.50;273848;1268;22238;-83
2023/03/15 06:01:49;;;;;;;11.90;3.90;;;;;;;3.17;86.05;98391.34;271773;1259;24273;-84
2023/03/15 06:07:58;;;;;;;14.30;4.60;;;;;;;3.20;85.68;98408.81;271014;1269;22559;-83
2023/03/15 06:14:08;;;;;;;10.80;4.80;;;;;;;3.19;85.50;98413.52;270965;1269;23835;-83
2023/03/15 06:20:30;;;;;;;10.60;5.00;;;;;;;3.19;85.56;98428.36;274022;1269;22251;-83
2023/03/15 06:27:28;;;;;;;14.50;5.40;;;;;;;3.19;85.61;98446.22;271137;1265;22545;-82
2023/03/15 06:33:30;;;;;;;;;;;;;;;3.20;85.63;98458.30;271401;1268;22495;-83
2023/03/15 06:39:36;;;;;;;19.00;4.90;;;;;;;3.27;85.64;98469.56;271942;1269;22235;-83
2023/03/15 06:45:40;;;;;;;12.10;4.70;;;;;;;3.33;85.34;98471.89;273607;1269;22159;-83
2023/03/15 06:51:44;;;;;;;15.60;4.80;;;;;;;3.33;84.92;98471.80;273864;1272;22179;-83
2023/03/15 06:57:52;;;;;;;18.30;5.50;;;;;;;3.41;85.05;98485.38;273587;1269;22954;-84
2023/03/15 07:03:54;;;;;;;10.20;4.40;;;;;;;3.54;84.80;98498.69;273720;1269;22262;-84
2023/03/15 07:09:56;;;;;;;13.90;4.60;;;;;;;3.63;84.31;98498.27;273798;1266;22272;-84
2023/03/15 07:16:00;;;;;;;11.90;4.30;;;;;;;3.72;83.62;98500.31;273978;1270;22174;-83
2023/03/15 07:22:01;;;;;;;11.70;4.20;;;;;;;3.73;83.27;98495.70;273152;1272;23373;-84
2023/03/15 07:28:03;;;;;;;20.00;5.60;;;;;;;3.72;83.24;98500.84;270921;1265;26523;-84
2023/03/15 07:34:28;;;;;;;9.20;4.90;;;;;;;3.87;83.22;98507.55;270351;1269;24209;-82
2023/03/15 07:40:50;;;;;;;10.60;4.90;;;;;;;4.22;83.18;98520.58;270189;1265;22544;-83
2023/03/15 07:46:53;;;;;;;13.10;5.40;;;;;;;4.52;82.49;98531.88;271286;1269;22563;-84
2023/03/15 07:53:15;;;;;;;12.70;4.40;;;;;;;4.63;82.00;98533.40;271710;1269;24026;-84
2023/03/15 07:59:17;;;;;;;10.90;4.90;;;;;;;4.64;80.79;98547.94;271120;1269;23410;-85
2023/03/15 08:05:59;;;;;;;18.60;5.50;;;;;;;4.53;80.63;98562.19;270788;1268;22550;-84
2023/03/15 08:12:01;;;;;;;15.40;4.70;;;;;;;4.38;80.29;98569.43;270222;1269;22520;-83
2023/03/15 08:18:02;;;;;;;9.90;4.60;;;;;;;4.39;80.47;98574.56;270412;1269;23587;-84
2023/03/15 08:24:05;;;;;;;16.10;6.20;;;;;;;4.46;80.27;98577.88;270312;1257;22527;-83
2023/03/15 08:30:11;;;;;;;12.30;5.70;;;;;;;4.72;79.98;98576.40;271556;1269;23749;-84
2023/03/15 08:36:12;;;;;;;12.20;4.80;;;;;;;4.79;79.54;98578.85;273905;1268;23290;-84
2023/03/15 08:42:14;;;;;;;9.60;4.20;;;;;;;4.76;79.38;98579.71;273414;1269;23009;-83
2023/03/15 08:48:16;;;;;;;11.10;4.50;;;;;;;4.80;79.04;98578.88;272047;1269;22638;-83
2023/03/15 08:54:39;;;;;;;14.40;4.80;;;;;;;4.80;78.39;98581.92;272749;1259;23430;-84
2023/03/15 09:01:01;;;;;;;12.30;4.60;;;;;;;4.86;78.08;98589.34;274059;1272;22392;-84
2023/03/15 09:07:46;;;;;;;15.20;5.90;;;;;;;4.97;77.71;98596.77;274044;1273;22157;-83
2023/03/15 09:14:08;;;;;;;20.10;5.10;;;;;;;4.98;76.76;98615.31;273905;1276;22257;-84
2023/03/15 09:20:25;;;;;;;;;;;;;;;;;;;;;
2023/03/15 09:26:57;;;;;;;11.80;2.90;;;;;;;4.94;75.54;98621.11;273772;1269;22224;-84
2023/03/15 09:32:59;;;;;;;13.10;5.30;;;;;;;4.98;75.66;98625.47;273587;1272;23108;-84
2023/03/15 09:39:21;;;;;;;14.30;5.50;;;;;;;5.16;75.38;98627.34;273819;1269;23212;-85
2023/03/15 09:45:44;;;;;;;11.90;3.30;;;;;;;5.33;74.55;98632.14;273596;1262;23265;-84
2023/03/15 09:52:28;;;;;;;9.50;3.30;;;;;;;5.26;72.98;98632.65;273607;1269;22167;-85
2023/03/15 09:58:52;;;;;;;10.70;3.20;;;;;;;5.25;73.11;98636.66;273964;1276;22292;-85
2023/03/15 10:05:01;;;;;;;10.70;2.70;;;;;;;5.26;72.49;98641.48;273869;1276;23445;-85
2023/03/15 10:11:11;;;;;;;5.60;2.90;;;;;;;5.16;71.17;98652.09;273800;1260;23095;-83
2023/03/15 10:17:17;;;;;;;9.60;2.50;;;;;;;5.21;71.27;98656.31;273744;1263;22164;-83
2023/03/15 10:23:49;;;;;;;7.60;2.30;;;;;;;5.39;71.02;98661.75;274054;1269;22188;-84
2023/03/15 10:29:54;;;;;;;9.10;2.30;;;;;;;5.44;70.58;98666.00;273693;1270;22214;-84
2023/03/15 10:35:57;;;;;;;12.20;3.30;;;;;;;5.56;69.75;98672.44;272556;1269;22218;-84
2023/03/15 10:42:23;;;;;;;7.30;3.30;;;;;;;5.68;69.45;98674.61;274090;1273;22304;-84
2023/03/15 10:48:27;;;;;;;15.80;3.20;;;;;;;5.95;69.08;98674.14;272514;1269;22625;-83
2023/03/15 10:54:31;;;;;;;8.80;2.30;;;;;;;5.98;68.47;98678.79;270926;1269;22708;-84
2023/03/15 11:00:35;;;;;;;11.10;2.50;;;;;;;5.93;68.13;98686.98;270120;1257;22657;-84
2023/03/15 11:07:12;;;;;;;11.80;2.90;;;;;;;5.92;67.88;98687.41;273498;1261;22297;-84
2023/03/15 11:13:38;;;;;;;11.40;2.40;;;;;;;5.91;67.21;98693.45;273973;1272;22214;-84
2023/03/15 11:20:11;;;;;;;10.60;2.70;;;;;;;5.88;66.97;98688.16;273974;1270;22365;-84
2023/03/15 11:26:22;;;;;;;6.00;2.50;;;;;;;6.01;66.58;98684.21;273834;1270;22959;-84
2023/03/15 11:32:48;;;;;;;9.80;2.80;;;;;;;6.16;66.28;98680.64;274001;1271;22236;-84
2023/03/15 11:39:04;;;;;;;7.50;2.10;;;;;;;6.21;65.77;98677.19;273485;1271;22640;-84
2023/03/15 11:45:16;;;;;;;7.70;2.20;;;;;;;6.21;65.07;98690.99;270448;1270;23805;-84
2023/03/15 11:51:38;;;;;;;7.10;1.80;;;;;;;6.23;64.54;98693.14;270522;1269;22568;-84
2023/03/15 11:58:01;;;;;;;6.80;2.20;;;;;;;6.37;64.16;98690.04;270502;1269;23025;-83
2023/03/15 12:04:24;;;;;;;9.40;2.30;;;;;;;6.44;63.57;98688.65;272295;1257;23368;-83
2023/03/15 12:10:52;;;;;;;8.00;2.20;;;;;;;6.54;62.97;98691.58;270679;1257;22619;-84
2023/03/15 12:17:29;;;;;;;8.00;2.90;;;;;;;6.65;62.32;98695.33;270629;1269;23815;-84
2023/03/15 12:24:20;;;;;;;8.30;2.90;;;;;;;6.58;62.09;98694.48;270330;1270;22817;-83
2023/03/15 12:31:08;;;;;;;7.50;2.50;;;;;;;6.67;62.47;98694.43;270059;1269;22995;-84
2023/03/15 12:37:43;;;;;;;8.00;2.50;;;;;;;6.77;61.69;98693.48;273789;1270;23502;-85
2023/03/15 12:44:17;;;;;;;10.60;3.10;;;;;;;6.79;61.71;98694.77;273792;1269;22315;-84
2023/03/15 12:50:39;;;;;;;7.30;2.40;;;;;;;6.86;61.47;98697.55;273839;1270;23009;-85
2023/03/15 12:56:49;;;;;;;7.00;2.20;;;;;;;6.88;61.16;98698.21;273804;1275;22145;-85
2023/03/15 13:03:04;;;;;;;5.80;1.90;;;;;;;6.92;60.66;98701.11;273836;1276;22172;-85
2023/03/15 13:09:35;;;;;;;8.20;2.40;;;;;;;6.89;60.06;98700.17;271400;1270;22625;-85
2023/03/15 13:16:18;;;;;;;9.30;1.70;;;;;;;6.76;59.80;98699.98;271040;1260;22538;-85
2023/03/15 13:22:30;;;;;;;6.30;1.70;;;;;;;6.66;59.51;98695.42;273778;1261;22242;-83
2023/03/15 13:29:20;;;;;;;7.90;2.10;;;;;;;6.71;59.12;98700.42;273598;1269;22517;-85
2023/03/15 13:36:02;;;;;;;5.60;1.80;;;;;;;6.77;58.94;98716.33;273930;1270;22284;-85
2023/03/15 13:42:26;;;;;;;4.50;2.20;;;;;;;6.76;58.75;98721.90;274083;1257;22271;-83
2023/03/15 13:48:51;;;;;;;9.10;2.10;;;;;;;6.72;58.58;98725.72;272652;1269;22629;-83
2023/03/15 13:54:53;;;;;;;8.00;3.10;;;;;;;6.64;58.16;98728.95;270446;1270;22654;-83
2023/03/15 14:00:59;;;;;;;7.50;2.10;;;;;;;6.67;57.64;98737.64;270100;1268;22958;-83
2023/03/15 14:07:25;;;;;;;10.40;2.60;;;;;;;6.60;57.46;98747.20;270497;1254;22542;-84
2023/03/15 14:13:57;;;;;;;12.20;3.40;;;;;;;6.49;57.51;98754.41;270109;1269;22529;-84
2023/03/15 14:20:07;;;;;;;9.20;2.60;;;;;;;6.34;57.44;98757.01;272977;1269;22199;-84
2023/03/15 14:26:12;;;;;;;11.70;3.40;;;;;;;6.21;57.41;98761.44;270702;1257;22611;-84
2023/03/15 14:33:07;;;;;;;7.90;3.00;;;;;;;6.09;56.82;98774.72;272069;1257;22185;-85
2023/03/15 14:39:56;;;;;;;10.70;3.60;;;;;;;5.93;56.29;98774.17;273696;1276;22201;-84
2023/03/15 14:45:57;;;;;;;6.90;2.30;;;;;;;5.78;56.33;98774.89;272649;1269;22557;-85
2023/03/15 14:52:13;;;;;;;12.30;3.00;;;;;;;5.70;57.03;98779.17;273253;1269;22424;-84
2023/03/15 14:58:20;;;;;;;10.80;2.50;;;;;;;5.66;57.22;98783.58;273939;1271;22998;-84
2023/03/15 15:04:22;;;;;;;8.90;3.10;;;;;;;5.60;57.40;98790.62;273411;1260;22182;-84
2023/03/15 15:10:24;;;;;;;13.90;3.10;;;;;;;5.54;57.60;98800.30;273741;1269;22350;-84
2023/03/15 15:16:26;;;;;;;9.00;2.90;;;;;;;5.43;57.58;98807.30;273625;1259;22570;-82
2023/03/15 15:22:27;;;;;;;12.30;3.30;;;;;;;5.32;57.68;98812.34;273186;1269;22871;-83
2023/03/15 15:28:51;;;;;;;13.40;3.50;;;;;;;5.21;57.58;98817.30;272514;1269;23005;-84
2023/03/15 15:34:53;;;;;;;11.40;4.10;;;;;;;5.15;57.94;98818.59;273315;1261;22539;-84
2023/03/15 15:41:38;;;;;;;10.50;3.90;;;;;;;5.06;58.13;98818.77;270765;1269;22412;-83
2023/03/15 15:48:34;;;;;;;13.20;4.30;;;;;;;4.96;58.56;98822.88;270226;1269;22553;-83
2023/03/15 15:55:01;;;;;;;16.60;4.60;;;;;;;4.86;58.61;98834.37;272913;1269;22417;-84
2023/03/15 16:01:25;;;;;;;13.80;3.40;;;;;;;4.70;58.64;98837.92;273543;1269;23260;-84
2023/03/15 16:07:47;;;;;;;11.80;4.30;;;;;;;4.59;58.87;98842.49;273630;1269;22273;-83
2023/03/15 16:13:51;;;;;;;13.30;3.30;;;;;;;4.48;58.97;98850.52;273534;1269;22200;-84
2023/03/15 16:19:57;;;;;;;13.60;3.70;;;;;;;4.39;59.15;98857.02;271373;1269;22547;-85
2023/03/15 16:25:59;;;;;;;11.00;4.40;;;;;;;4.30;59.49;98859.67;272628;1264;22290;-83
2023/03/15 16:32:00;;;;;;;10.70;4.40;;;;;;;4.21;59.77;98867.20;273798;1269;22226;-84
2023/03/15 16:38:42;;;;;;;11.70;4.20;;;;;;;4.13;59.99;98869.08;273943;1266;22291;-83
2023/03/15 16:45:11;;;;;;;13.10;3.90;;;;;;;4.04;60.01;98872.00;273839;1271;128441;-84
2023/03/15 16:51:32;;;;;;;11.40;4.70;;;;;;;3.96;60.12;98880.41;273101;1269;22561;-84
2023/03/15 16:57:34;;;;;;;10.00;3.90;;;;;;;3.88;60.35;98897.21;272897;1269;22332;-84
2023/03/15 17:03:36;;;;;;;11.90;4.80;;;;;;;3.80;60.57;98904.90;272186;1259;22669;-83
2023/03/15 17:09:45;;;;;;;12.30;4.80;;;;;;;3.71;60.90;98915.94;272894;1271;22380;-84
2023/03/15 17:16:20;;;;;;;17.20;5.30;;;;;;;3.63;62.19;98928.23;271988;1269;22194;-84
2023/03/15 17:22:48;;;;;;;12.90;4.50;;;;;;;3.48;62.59;98921.52;273997;1257;22553;-84
2023/03/15 17:28:50;;;;;;;15.90;5.50;;;;;;;3.35;62.96;98927.05;272898;1261;23433;-83
2023/03/15 17:34:57;;;;;;;15.90;6.70;;;;;;;3.24;63.65;98931.86;274023;1275;22188;-83
2023/03/15 17:42:00;;;;;;;18.20;8.00;;;;;;;3.12;63.34;98937.76;273770;1266;22247;-84
2023/03/15 17:48:22;;;;;;;16.90;7.10;;;;;;;2.98;63.43;98952.02;273966;1273;22341;-83
2023/03/15 17:54:31;;;;;;;26.00;7.50;;;;;;;2.87;63.66;98958.06;273698;1257;22173;-82
2023/03/15 18:00:35;;;;;;;19.80;8.50;;;;;;;2.73;63.70;98964.84;273362;1269;22184;-83
2023/03/15 18:07:17;;;;;;;28.80;9.50;;;;;;;2.61;63.88;98964.34;271501;1269;22393;-82
2023/03/15 18:14:19;;;;;;;22.70;9.00;;;;;;;2.48;63.88;98966.11;270543;1268;22524;-82
2023/03/15 18:20:24;;;;;;;24.80;10.20;;;;;;;2.34;64.63;98968.04;273809;1262;22195;-83
2023/03/15 18:27:20;;;;;;;39.80;14.20;;;;;;;2.17;65.21;98962.32;270171;1269;22482;-83
2023/03/15 18:33:22;;;;;;;46.20;17.40;;;;;;;2.02;65.43;98961.61;269943;1269;24353;-83
2023/03/15 18:39:24;;;;;;;60.60;24.50;;;;;;;1.89;66.23;98963.62;270179;1269;22568;-84
2023/03/15 18:45:46;;;;;;;63.90;23.70;;;;;;;1.81;66.75;98962.48;270021;1269;22904;-83
2023/03/15 18:51:48;;;;;;;61.40;24.20;;;;;;;1.73;67.08;98963.64;270794;1269;22553;-83
2023/03/15 18:57:51;;;;;;;57.40;22.80;;;;;;;1.66;67.55;98970.14;271658;1269;22213;-83
2023/03/15 19:03:53;;;;;;;48.20;20.10;;;;;;;1.60;68.24;98974.05;272154;1268;22521;-82
2023/03/15 19:10:17;;;;;;;49.80;19.30;;;;;;;1.51;68.46;98983.61;272901;1269;22374;-83
2023/03/15 19:17:38;;;;;;;52.00;20.40;;;;;;;1.46;69.11;98983.23;274078;1269;22255;-83
2023/03/15 19:24:21;;;;;;;54.30;20.30;;;;;;;1.42;69.55;98983.60;273223;1269;22220;-83
2023/03/15 19:30:41;;;;;;;49.20;21.40;;;;;;;1.40;69.63;98986.27;273833;1269;23419;-83
2023/03/15 19:36:46;;;;;;;50.70;21.70;;;;;;;1.33;69.89;98991.02;272975;1269;22544;-83
2023/03/15 19:42:50;;;;;;;45.60;19.50;;;;;;;1.25;70.68;98995.34;271504;1268;23655;-84
2023/03/15 19:49:40;;;;;;;44.50;21.10;;;;;;;1.25;71.52;99002.83;271256;1269;22190;-84
2023/03/15 19:55:49;;;;;;;52.20;23.10;;;;;;;1.23;71.63;99011.23;270673;1268;22526;-83
2023/03/15 20:01:51;;;;;;;59.60;25.60;;;;;;;1.17;71.65;99018.42;270630;1269;22605;-84
2023/03/15 20:08:07;;;;;;;57.90;26.00;;;;;;;1.10;71.67;99022.61;271584;1256;22220;-83
2023/03/15 20:14:57;;;;;;;70.90;26.60;;;;;;;0.99;71.96;99025.09;271370;1269;22530;-83
2023/03/15 20:20:59;;;;;;;57.90;25.30;;;;;;;0.92;72.63;99030.82;270363;1269;22577;-83
2023/03/15 20:27:00;;;;;;;57.10;24.70;;;;;;;0.90;73.72;99035.79;271232;1268;23809;-83
2023/03/15 20:33:02;;;;;;;46.30;22.20;;;;;;;0.86;74.27;99041.76;273481;1269;22429;-84
2023/03/15 20:39:04;;;;;;;50.30;22.00;;;;;;;0.83;75.03;99047.62;272267;1269;23843;-84
2023/03/15 20:45:08;;;;;;;63.70;28.30;;;;;;;0.84;75.59;99049.42;272350;1269;22523;-83
2023/03/15 20:51:33;;;;;;;65.50;30.90;;;;;;;0.86;75.76;99050.89;270773;1269;22530;-84
2023/03/15 20:57:35;;;;;;;56.20;27.40;;;;;;;0.88;76.30;99055.84;270142;1269;23388;-84
2023/03/15 21:03:37;;;;;;;77.00;34.80;;;;;;;0.83;76.30;99056.93;270326;1257;22686;-83
2023/03/15 21:09:39;;;;;;;88.10;37.70;;;;;;;0.76;75.97;99064.09;271482;1269;22452;-83
2023/03/15 21:15:46;;;;;;;90.20;43.10;;;;;;;0.69;75.61;99067.92;271902;1256;22192;-83
2023/03/15 21:21:49;;;;;;;115.10;51.60;;;;;;;0.68;75.78;99078.47;273696;1269;22307;-83
2023/03/15 21:27:51;;;;;;;107.70;48.70;;;;;;;0.72;76.43;99084.33;273689;1269;22332;-84
2023/03/15 21:33:53;;;;;;;116.90;52.90;;;;;;;0.80;76.42;99087.11;273865;1269;22688;-83
2023/03/15 21:39:54;;;;;;;109.50;49.90;;;;;;;0.86;75.85;99088.47;273749;1269;22181;-83
2023/03/15 21:46:09;;;;;;;112.80;49.60;;;;;;;0.85;75.98;99087.03;273927;1272;23332;-83
2023/03/15 21:52:11;;;;;;;112.90;51.00;;;;;;;0.86;75.98;99086.31;273920;1269;22307;-82
2023/03/15 21:58:13;;;;;;;109.40;49.80;;;;;;;0.86;76.15;99092.11;273811;1269;22220;-84
2023/03/15 22:04:49;;;;;;;107.00;48.10;;;;;;;0.88;77.05;99100.21;273672;1269;22335;-83
2023/03/15 22:10:56;;;;;;;108.70;48.60;;;;;;;0.87;77.51;99110.19;272969;1269;22251;-83
2023/03/15 22:16:58;;;;;;;109.70;49.70;;;;;;;0.86;77.84;99120.42;274058;1272;22183;-84
2023/03/15 22:23:21;;;;;;;113.20;48.90;;;;;;;0.86;78.12;99128.91;272446;1269;22465;-82
2023/03/15 22:29:43;;;;;;;96.40;43.80;;;;;;;0.86;78.29;99134.06;274127;1268;22240;-84
2023/03/15 22:35:45;;;;;;;86.20;40.50;;;;;;;0.83;78.41;99132.55;274041;1256;22198;-82
2023/03/15 22:42:07;;;;;;;82.60;37.30;;;;;;;0.83;78.50;99138.06;273988;1269;22219;-83
2023/03/15 22:48:08;;;;;;;79.00;35.80;;;;;;;0.82;78.38;99144.98;274165;1275;22212;-84
2023/03/15 22:54:10;;;;;;;68.30;29.10;;;;;;;0.82;78.36;99147.63;274029;1270;22230;-84
2023/03/15 23:00:15;;;;;;;67.40;28.40;;;;;;;0.80;78.33;99150.00;272274;1269;22389;-85
2023/03/15 23:06:18;;;;;;;64.30;26.90;;;;;;;0.76;78.48;99158.27;270894;1270;22540;-82
2023/03/15 23:12:20;;;;;;;59.00;23.20;;;;;;;0.75;78.54;99165.27;271424;1266;22563;-83
2023/03/15 23:18:33;;;;;;;51.20;23.90;;;;;;;0.76;78.72;99169.39;272137;1269;22539;-84
2023/03/15 23:25:12;;;;;;;58.40;23.70;;;;;;;0.81;78.94;99181.81;270778;1272;22321;-84
2023/03/15 23:31:33;;;;;;;50.00;21.60;;;;;;;0.84;78.97;99190.92;273157;1262;22368;-84
2023/03/15 23:37:55;;;;;;;62.30;24.00;;;;;;;0.86;79.14;99192.23;273229;1278;22211;-83
2023/03/15 23:43:56;;;;;;;53.80;23.80;;;;;;;0.86;79.46;99199.91;273125;1272;22361;-84
2023/03/15 23:50:08;;;;;;;73.90;31.80;;;;;;;0.86;79.65;99200.20;273193;1272;22460;-83
2023/03/15 23:56:11;;;;;;;62.90;29.30;;;;;;;0.85;79.59;99204.69;273490;1269;22338;-83
